Terminal Aerodrome Forecast
Issued by NWS Rapid City, SD

Home | Current Version | Previous Version | Text Only | Print | Product List | Glossary Off
Versions: 1 2 3 4 5 6 7 8 9 10 11 12 13 14 15 16 17 18 19 20 21 22

000
FTUS43 KUNR 270030 AAB
TAFRAP
TAF AMD
KRAP 270030Z 2701/2724 17010KT P6SM VCTS SCT035CB BKN100
     FM270200 16012KT P6SM SCT035 SCT100
     FM270500 17005KT P6SM -SHRA BKN035
      TEMPO 2706/2707 -TSRA BKN035CB
     FM270800 VRB05KT P6SM SCT035 BKN120
      TEMPO 2712/2714 SCT015
     FM271500 18006KT P6SM SCT120=

USA.gov is the U.S. government's official web portal to all federal, state and local government web resources and services.